Flight Track Log - Related Links

Times and Time Zones

All times are in EDT time to prevent confusion due to time zone crossing. See the AAY804 flight status page for this flight to view local times or setup timezone preferences in your user account.

Time Position Orientation Groundspeed Altitude Reporting Facility
EDT Latitude Longitude Course Direction KTS MPH feet Rate Location/Type
09:28 27.9000 -82.6833 180° South 144 166 500  Level Tampa TRACON
09:29 27.8333 -82.6833 180° South 207 238 1,700 1,864 Climbing Tampa TRACON
09:30 27.7833 -82.7167 211° Southwest 234 269 4,600 2,800 Climbing Tampa TRACON
09:31 27.7667 -82.7667 249° West 259 298 7,300 2,433 Climbing Tampa TRACON
09:33 27.9272 -82.8014 349° North 309 356 11,900 1,924 Climbing Miami Center
09:39 28.5776 -82.8956 353° North 417 480 23,400 1,813 Climbing FlightAware ADS-B
09:40 28.6455 -82.9056 353° North 423 487 24,500 1,345 Climbing FlightAware ADS-B
09:43 29.0215 -82.9616 353° North 449 517 28,400 1,168 Climbing FlightAware ADS-B
09:44 29.1728 -82.9847 353° North 453 521 29,600 1,007 Climbing Miami Center
09:45 29.3019 -83.0044 352° North 453 521 30,700 1,122 Climbing Jacksonville Center
09:46 29.4333 -83.0236 353° North 458 527 31,900 1,300 Climbing Jacksonville Center
09:47 29.5525 -83.0453 351° North 477 549 33,300 1,050 Climbing Jacksonville Center
09:48 29.6756 -83.0861 344° North 477 549 34,000 800 Climbing Jacksonville Center
09:49 29.7861 -83.1392 337° Northwest 447 514 34,900 950 Climbing Jacksonville Center
09:50 29.9008 -83.1897 339° North 440 506 35,900 550 Climbing Jacksonville Center
09:51 30.0300 -83.2500 338° Northwest 440 506 36,000 50 Climbing Jacksonville Center
09:52 30.1322 -83.2961 339° North 440 506 36,000  Level Jacksonville Center
09:53 30.2469 -83.3494 338° Northwest 435 501 36,000  Level Jacksonville Center
09:54 30.3594 -83.4031 338° Northwest 435 501 36,000  Level Jacksonville Center
09:55 30.4719 -83.4567 338° Northwest 435 501 36,000 -50 Level Jacksonville Center
09:56 30.5867 -83.5103 338° Northwest 435 501 35,900  Descending Jacksonville Center
09:57 30.7072 -83.5692 337° Northwest 435 501 36,000 50 Climbing Jacksonville Center
09:58 30.8219 -83.6231 338° Northwest 430 495 36,000  Level Jacksonville Center
09:59 30.9364 -83.6772 338° Northwest 435 501 36,000  Level Jacksonville Center
10:00 31.0508 -83.7317 338° Northwest 435 501 36,000  Level Jacksonville Center
10:02 31.2539 -83.8325 337° Northwest 445 512 36,000  Level Atlanta Center
10:03 31.3708 -83.8856 339° North 445 512 36,000  Level Atlanta Center
10:04 31.4836 -83.9414 337° Northwest 445 512 36,000  Level Atlanta Center
10:05 31.6025 -83.9803 344° North 440 506 36,000  Level Atlanta Center
10:06 31.7342 -84.0094 349° North 440 506 36,000  Level Atlanta Center
10:07 31.8553 -84.0364 349° North 440 506 36,000  Level Atlanta Center
10:08 31.9719 -84.0608 350° North 435 501 36,000 -400 Level Atlanta Center
10:09 32.0931 -84.0856 350° North 429 494 35,200 -900 Descending Atlanta Center
10:10 32.2119 -84.1125 349° North 429 494 34,200 -600 Descending Atlanta Center
10:11 32.3311 -84.1397 349° North 429 494 34,000 -100 Descending Atlanta Center
10:12 32.4500 -84.1669 349° North 429 494 34,000  Level Atlanta Center
10:13 32.5711 -84.1942 349° North 429 494 34,000  Level Atlanta Center
10:14 32.6919 -84.2214 349° North 429 494 34,000 -150 Level Atlanta Center
10:15 32.8150 -84.2489 349° North 434 499 33,700 -600 Descending Atlanta Center
10:16 32.9342 -84.2789 348° North 434 499 32,800 -950 Descending Atlanta Center
10:17 33.0550 -84.3017 351° North 434 499 31,800 -1,000 Descending Atlanta Center
10:18 33.1678 -84.3317 347° North 427 491 30,800 -900 Descending Atlanta Center
10:19 33.2844 -84.3544 351° North 422 486 30,000 -800 Descending Atlanta Center
10:20 33.3825 -84.3797 348° North 414 476 29,200 -900 Descending Atlanta Center
10:21 33.4953 -84.4050 349° North 414 476 28,200 -2,041 Descending Atlanta Center
10:24 34.1097 -84.6944 336° Northwest 373 429 20,900 -2,141 Descending FlightAware ADS-B (KDZJ)
10:25 34.1981 -84.7425 335° Northwest 355 409 19,600 776 Descending FlightAware ADS-B (KDZJ)
10:26 34.0203 -84.6453 335° Northwest 397 457 22,400 655 Climbing Atlanta Center
10:27 34.1139 -84.6986 335° Northwest 385 443 20,900 -1,500 Descending Atlanta Center
10:28 34.2075 -84.7497 336° Northwest 374 430 19,400 -1,550 Descending Atlanta Center
10:29 34.2992 -84.8006 335° Northwest 368 423 17,800 -1,550 Descending Atlanta Center
10:30 34.3864 -84.8467 336° Northwest 356 410 16,300 -1,600 Descending Atlanta Center
10:31 34.4739 -84.8931 336° Northwest 351 404 14,600 -1,750 Descending Atlanta Center
10:32 34.5675 -84.9192 347° North 346 398 12,800 -1,950 Descending Atlanta Center
10:33 34.6572 -84.9378 350° North 336 387 10,700 -1,600 Descending Atlanta Center
10:34 34.7447 -84.9614 347° North 331 381 9,600 -1,450 Descending Atlanta Center
10:35 34.8156 -84.9775 349° North 308 354 7,800 -1,900 Descending Atlanta Center
10:36 34.8883 -84.9986 347° North 284 327 5,800 -1,900 Descending Atlanta Center
10:37 34.9633 -85.0169 349° North 277 319 4,000 -1,200 Descending Atlanta Center
10:38 35.0300 -85.0381 345° North 266 306 3,400 -500 Descending Atlanta Center
10:39 35.0903 -85.0542 348° North 240 276 3,000 -400 Descending Atlanta Center
10:41 35.0333 -85.2000 248° West  Level FlightAware Approximate
10:48 35.0352 -85.2036 248° West  Level Estimated
10:49 35.0352 -85.2036 123° Southeast  Level Estimated
10:50 35.0333 -85.2000 248° West  Level FlightAware Approximate
10:51 35.0352 -85.2036 North  Level Estimated
10:52 35.0333 -85.2000 248° West  Level FlightAware Approximate
10:53 35.0352 -85.2036 North  Level Estimated

Login

Don't have an account? Register now (free) for customized features, flight alerts, and more!